Time;durP1;ratioP1;P1;durP2;ratioP2;P2;SDS_P1;SDS_P2;PMS_P1;PMS_P2;Temp;Humidity;BMP_temperature;BMP_pressure;BME280_temperature;BME280_humidity;BME280_pressure;Samples;Min_cycle;Max_cycle;Signal;HPM_P1;HPM_P2
2022/08/24 00:01:30;;;;;;;8.27;6.73;;;22.80;99.90;;;;;;5103311;28;20187;-93
2022/08/24 00:03:56;;;;;;;8.00;7.07;;;22.80;99.90;;;;;;5105284;28;20257;-95
2022/08/24 00:06:23;;;;;;;7.77;6.67;;;22.70;99.90;;;;;;5100670;28;20180;-94
2022/08/24 00:08:50;;;;;;;11.20;7.23;;;22.70;99.90;;;;;;5099851;28;20801;-93
2022/08/24 00:11:17;;;;;;;7.63;6.83;;;22.70;99.90;;;;;;5099588;28;21034;-94
2022/08/24 00:13:43;;;;;;;10.00;8.27;;;22.60;99.90;;;;;;5099651;28;20431;-94
2022/08/24 00:16:10;;;;;;;9.70;7.40;;;22.60;99.90;;;;;;5099751;28;20515;-95
2022/08/24 00:18:37;;;;;;;8.13;6.67;;;22.60;99.90;;;;;;5100170;28;20458;-93
2022/08/24 00:21:03;;;;;;;9.93;7.70;;;22.60;99.90;;;;;;5101067;28;20440;-95
2022/08/24 00:23:29;;;;;;;9.70;7.07;;;22.60;99.90;;;;;;5100907;28;20459;-95
2022/08/24 00:25:55;;;;;;;12.30;7.53;;;22.50;99.90;;;;;;5100519;28;20420;-95
2022/08/24 00:28:21;;;;;;;8.90;7.60;;;22.50;99.90;;;;;;5100831;28;20271;-94
2022/08/24 00:30:47;;;;;;;9.00;7.30;;;22.50;99.90;;;;;;5101980;28;20435;-95
2022/08/24 00:33:13;;;;;;;8.57;7.67;;;22.50;99.90;;;;;;5100672;28;20483;-93
2022/08/24 00:35:38;;;;;;;8.37;6.70;;;22.50;99.90;;;;;;5120775;28;20241;-95
2022/08/24 00:38:05;;;;;;;8.73;7.33;;;22.40;99.90;;;;;;5100204;28;20200;-94
2022/08/24 00:40:34;;;;;;;7.93;7.00;;;22.40;99.90;;;;;;5098945;28;20428;-94
2022/08/24 00:43:03;;;;;;;10.97;7.27;;;22.40;99.90;;;;;;5108281;28;20986;-94
2022/08/24 00:45:49;;;;;;;9.07;7.23;;;22.40;99.90;;;;;;5099319;28;20488;-94
2022/08/24 00:48:24;;;;;;;8.33;7.50;;;22.40;99.90;;;;;;5098665;28;20531;-94
2022/08/24 00:50:58;;;;;;;8.40;6.87;;;22.40;99.90;;;;;;5117321;28;20472;-94
2022/08/24 00:53:35;;;;;;;10.07;7.40;;;22.40;99.90;;;;;;5099757;28;20504;-95
2022/08/24 00:56:05;;;;;;;11.07;8.87;;;22.40;99.90;;;;;;5099727;28;20439;-94
2022/08/24 00:58:35;;;;;;;10.00;7.47;;;22.40;99.90;;;;;;5100232;28;20421;-94
2022/08/24 01:01:05;;;;;;;7.77;6.93;;;22.40;99.90;;;;;;5118756;28;20423;-95
2022/08/24 01:03:32;;;;;;;8.80;7.87;;;22.40;99.90;;;;;;5100982;28;20476;-94
2022/08/24 01:05:58;;;;;;;9.77;7.80;;;22.40;99.90;;;;;;5099602;28;20424;-94
2022/08/24 01:08:24;;;;;;;8.63;7.23;;;22.40;99.90;;;;;;5100330;28;20423;-94
2022/08/24 01:10:57;;;;;;;9.27;8.00;;;22.30;99.90;;;;;;5098955;28;21029;-94
2022/08/24 01:13:24;;;;;;;8.90;7.47;;;22.40;99.90;;;;;;5105089;28;20453;-93
2022/08/24 01:15:53;;;;;;;11.13;8.00;;;22.40;99.90;;;;;;5098710;28;20990;-93
2022/08/24 01:21:21;;;;;;;10.30;8.10;;;22.30;99.90;;;;;;5116849;28;20423;-94
2022/08/24 01:24:13;;;;;;;10.10;7.30;;;22.40;99.90;;;;;;5099168;28;20518;-94
2022/08/24 01:26:46;;;;;;;8.83;7.20;;;22.40;99.90;;;;;;5118211;28;20420;-94
2022/08/24 01:29:17;;;;;;;9.03;7.00;;;22.30;99.90;;;;;;5099254;28;20452;-95
2022/08/24 01:31:43;;;;;;;10.97;9.00;;;22.30;99.90;;;;;;5099511;28;20556;-93
2022/08/24 01:34:10;;;;;;;9.97;7.90;;;22.30;99.90;;;;;;5099530;28;20490;-94
2022/08/24 01:36:45;;;;;;;9.07;7.53;;;22.30;99.90;;;;;;5116081;28;20404;-94
2022/08/24 01:39:24;;;;;;;8.10;6.73;;;22.40;99.90;;;;;;5098747;28;20481;-94
2022/08/24 01:41:50;;;;;;;8.80;7.80;;;22.40;99.90;;;;;;5099812;28;20404;-95
2022/08/24 01:44:18;;;;;;;10.03;8.10;;;22.30;99.90;;;;;;5117851;28;20439;-94
2022/08/24 01:46:45;;;;;;;13.17;8.13;;;22.30;99.90;;;;;;5099100;28;20504;-95
2022/08/24 01:49:11;;;;;;;8.73;7.30;;;22.40;99.90;;;;;;5116599;28;22142;-93
2022/08/24 01:51:37;;;;;;;8.50;6.70;;;22.40;99.90;;;;;;5098600;28;20466;-93
2022/08/24 01:54:04;;;;;;;9.97;7.80;;;22.40;99.90;;;;;;5098577;28;20428;-93
2022/08/24 01:56:31;;;;;;;10.70;7.50;;;22.40;99.90;;;;;;5098498;28;20203;-96
2022/08/24 01:58:57;;;;;;;9.70;6.97;;;22.40;99.90;;;;;;5098807;28;20518;-94
2022/08/24 02:01:25;;;;;;;8.27;7.23;;;22.50;99.90;;;;;;5099149;28;20408;-94
2022/08/24 02:03:51;;;;;;;10.10;7.60;;;22.50;99.90;;;;;;5098748;28;20434;-93
2022/08/24 02:06:18;;;;;;;10.17;7.30;;;22.50;99.90;;;;;;5099014;28;20502;-94
2022/08/24 02:08:44;;;;;;;10.67;7.23;;;22.50;99.90;;;;;;5099057;28;20428;-93
2022/08/24 02:11:11;;;;;;;8.10;6.90;;;22.50;99.90;;;;;;5098574;28;20442;-94
2022/08/24 02:13:39;;;;;;;10.73;7.60;;;22.50;99.90;;;;;;5098871;28;20519;-94
2022/08/24 02:16:05;;;;;;;8.87;7.70;;;22.40;99.90;;;;;;5098607;28;20523;-95
2022/08/24 02:18:33;;;;;;;9.87;7.97;;;22.50;99.90;;;;;;5098792;28;20457;-95
2022/08/24 02:20:59;;;;;;;9.70;7.17;;;22.40;99.90;;;;;;5098122;28;20420;-94
2022/08/24 02:23:26;;;;;;;8.97;8.00;;;22.40;99.90;;;;;;5099165;28;20427;-93
2022/08/24 02:25:52;;;;;;;9.17;7.77;;;22.40;99.90;;;;;;5104038;28;20424;-93
2022/08/24 02:28:19;;;;;;;10.10;8.40;;;22.40;99.90;;;;;;5116834;28;20423;-94
2022/08/24 02:30:45;;;;;;;10.57;8.00;;;22.40;99.90;;;;;;5116228;28;20263;-93
2022/08/24 02:33:11;;;;;;;10.70;8.13;;;22.40;99.90;;;;;;5098598;28;20566;-91
2022/08/24 02:35:37;;;;;;;8.13;7.23;;;22.30;99.90;;;;;;5098691;28;20968;-93
2022/08/24 02:38:03;;;;;;;9.60;7.30;;;22.40;99.90;;;;;;5099647;28;20427;-94
2022/08/24 02:40:31;;;;;;;9.40;7.57;;;22.30;99.90;;;;;;5105452;28;20513;-91
2022/08/24 02:42:56;;;;;;;8.43;7.50;;;22.30;99.90;;;;;;5101798;28;20499;-92
2022/08/24 02:45:22;;;;;;;10.60;8.27;;;22.30;99.90;;;;;;5101261;28;20463;-91
2022/08/24 02:47:48;;;;;;;11.70;10.50;;;22.30;99.90;;;;;;5101517;28;20641;-92
2022/08/24 02:50:16;;;;;;;9.27;8.37;;;22.30;99.90;;;;;;5102071;28;20468;-94
2022/08/24 02:52:42;;;;;;;10.50;8.10;;;22.30;99.90;;;;;;5101753;28;20267;-91
2022/08/24 02:55:12;;;;;;;9.53;7.90;;;22.30;99.90;;;;;;5102266;28;20420;-92
2022/08/24 02:57:38;;;;;;;11.53;8.33;;;22.30;99.90;;;;;;5119964;28;20396;-92
2022/08/24 03:00:08;;;;;;;11.73;8.50;;;22.30;99.90;;;;;;5102420;28;20956;-93
2022/08/24 03:02:34;;;;;;;9.50;7.80;;;22.30;99.90;;;;;;5102484;28;20400;-92
2022/08/24 03:05:00;;;;;;;10.60;8.93;;;22.30;99.90;;;;;;5101661;28;20444;-93
2022/08/24 03:07:27;;;;;;;10.67;7.90;;;22.30;99.90;;;;;;5102302;28;20414;-93
2022/08/24 03:09:53;;;;;;;9.80;8.37;;;22.20;99.90;;;;;;5101701;28;20443;-92
2022/08/24 03:12:18;;;;;;;9.90;8.00;;;22.20;99.90;;;;;;5107755;28;20580;-92
2022/08/24 03:14:44;;;;;;;9.40;7.87;;;22.20;99.90;;;;;;5123185;28;20455;-92
2022/08/24 03:17:10;;;;;;;12.80;8.83;;;22.10;99.90;;;;;;5104909;28;20172;-92
2022/08/24 03:19:37;;;;;;;9.63;8.47;;;22.00;99.90;;;;;;5104061;28;20199;-92
2022/08/24 03:22:03;;;;;;;9.87;8.40;;;21.90;99.90;;;;;;5107407;28;20412;-93
2022/08/24 03:24:29;;;;;;;10.37;8.13;;;21.90;99.90;;;;;;5102177;28;20447;-91
2022/08/24 03:26:55;;;;;;;11.27;8.90;;;21.80;99.90;;;;;;5101721;28;20468;-92
2022/08/24 03:29:20;;;;;;;10.90;8.20;;;21.80;99.90;;;;;;5100967;28;20226;-93
2022/08/24 03:31:47;;;;;;;13.00;8.40;;;21.70;99.90;;;;;;5101778;28;20208;-92
2022/08/24 03:34:13;;;;;;;9.13;7.70;;;21.60;99.90;;;;;;5103069;28;20231;-92
2022/08/24 03:36:44;;;;;;;11.37;8.47;;;21.60;99.90;;;;;;5102584;28;20464;-92
2022/08/24 03:39:10;;;;;;;12.17;8.90;;;21.50;99.90;;;;;;5101926;28;20917;-93
2022/08/24 03:41:36;;;;;;;9.73;8.50;;;21.50;99.90;;;;;;5101653;28;20423;-92
2022/08/24 03:44:02;;;;;;;12.30;9.07;;;21.50;99.90;;;;;;5120673;28;20180;-91
2022/08/24 03:46:29;;;;;;;10.90;8.83;;;21.50;99.90;;;;;;5101196;28;20175;-92
2022/08/24 03:48:57;;;;;;;11.60;8.70;;;21.50;99.90;;;;;;5103850;28;20424;-92
2022/08/24 03:51:26;;;;;;;10.70;8.67;;;21.50;99.90;;;;;;5099758;28;20464;-91
2022/08/24 03:53:53;;;;;;;14.10;9.67;;;21.60;99.90;;;;;;5099713;28;20423;-93
2022/08/24 03:56:19;;;;;;;12.53;9.63;;;21.60;99.90;;;;;;5099787;28;20495;-92
2022/08/24 03:58:45;;;;;;;11.53;9.17;;;21.60;99.90;;;;;;5099870;28;20467;-93
2022/08/24 04:01:11;;;;;;;10.63;8.93;;;21.60;99.90;;;;;;5096292;28;20476;-94
2022/08/24 04:03:39;;;;;;;12.77;10.03;;;21.60;99.90;;;;;;5083943;28;20423;-92
2022/08/24 04:06:07;;;;;;;11.90;9.57;;;21.70;99.90;;;;;;5090435;28;21024;-92
2022/08/24 04:08:34;;;;;;;17.93;8.73;;;21.70;99.90;;;;;;5085074;28;20948;-92
2022/08/24 04:11:00;;;;;;;12.20;9.37;;;21.70;99.90;;;;;;5098208;28;20489;-93
2022/08/24 04:13:30;;;;;;;12.13;9.17;;;21.70;99.90;;;;;;5099732;28;20959;-92
2022/08/24 04:16:08;;;;;;;10.57;8.57;;;21.70;99.90;;;;;;5086053;28;20444;-93
2022/08/24 04:18:34;;;;;;;12.60;9.60;;;21.80;99.90;;;;;;5080232;28;20423;-94
2022/08/24 04:21:01;;;;;;;10.87;9.00;;;21.80;99.90;;;;;;5081445;28;20797;-94
2022/08/24 04:23:28;;;;;;;17.20;10.63;;;21.80;99.90;;;;;;5081439;28;20433;-93
2022/08/24 04:25:53;;;;;;;12.03;9.73;;;21.80;99.90;;;;;;5077792;28;20494;-93
2022/08/24 04:28:22;;;;;;;12.10;10.10;;;21.80;99.90;;;;;;5082805;28;20448;-93
2022/08/24 04:30:51;;;;;;;12.77;9.80;;;21.80;99.90;;;;;;5077468;28;20207;-92
2022/08/24 04:33:18;;;;;;;13.37;10.50;;;21.80;99.90;;;;;;5078430;28;20895;-91
2022/08/24 04:35:46;;;;;;;12.10;9.50;;;21.80;99.90;;;;;;5096012;28;20795;-92
2022/08/24 04:38:13;;;;;;;13.37;10.30;;;21.80;99.90;;;;;;5088043;28;20500;-92
2022/08/24 04:40:41;;;;;;;13.60;9.67;;;21.80;99.90;;;;;;5103640;28;20469;-93
2022/08/24 04:43:07;;;;;;;12.57;11.10;;;21.80;99.90;;;;;;5106032;28;20427;-93
2022/08/24 04:45:38;;;;;;;14.53;10.00;;;21.80;99.90;;;;;;5113034;28;20428;-92
2022/08/24 04:48:04;;;;;;;13.63;10.93;;;21.80;99.90;;;;;;5111291;28;20424;-92
2022/08/24 04:50:32;;;;;;;13.40;11.13;;;21.80;99.90;;;;;;5095799;28;20900;-92
2022/08/24 04:52:58;;;;;;;13.97;10.77;;;21.80;99.90;;;;;;5096095;28;20469;-92
2022/08/24 04:55:23;;;;;;;13.03;11.00;;;21.80;99.90;;;;;;5096566;28;20482;-92
2022/08/24 04:57:49;;;;;;;11.90;10.60;;;21.80;99.90;;;;;;5095729;28;20164;-93
2022/08/24 05:00:15;;;;;;;16.17;12.00;;;21.80;99.90;;;;;;5095706;28;20309;-92
2022/08/24 05:02:41;;;;;;;12.83;10.80;;;21.70;99.90;;;;;;5095152;28;20533;-94
2022/08/24 05:05:08;;;;;;;16.90;12.20;;;21.70;99.90;;;;;;5095473;28;20452;-92
2022/08/24 05:07:35;;;;;;;14.60;11.53;;;21.70;99.90;;;;;;5096081;28;20637;-93
2022/08/24 05:10:01;;;;;;;14.50;10.83;;;21.80;99.90;;;;;;5088412;28;20454;-92
2022/08/24 05:12:27;;;;;;;12.30;10.53;;;21.80;99.90;;;;;;5069418;28;20481;-92
2022/08/24 05:14:53;;;;;;;16.03;12.17;;;21.80;99.90;;;;;;5087825;28;20462;-93
2022/08/24 05:17:18;;;;;;;15.70;11.60;;;21.80;99.90;;;;;;5074868;28;20169;-92
2022/08/24 05:19:44;;;;;;;18.57;12.67;;;21.80;99.90;;;;;;5074790;28;20201;-92
2022/08/24 05:22:10;;;;;;;16.33;11.40;;;21.80;99.90;;;;;;5075233;28;20222;-93
2022/08/24 05:24:35;;;;;;;13.53;10.83;;;21.90;99.90;;;;;;5074142;28;20287;-92
2022/08/24 05:27:01;;;;;;;16.77;11.13;;;21.90;99.90;;;;;;5079803;28;20185;-92
2022/08/24 05:29:27;;;;;;;14.47;11.00;;;21.90;99.90;;;;;;5078137;28;20205;-92
2022/08/24 05:31:53;;;;;;;15.37;11.63;;;21.90;99.90;;;;;;5075304;28;20205;-92
2022/08/24 05:34:19;;;;;;;13.23;10.33;;;21.90;99.90;;;;;;5078344;28;20300;-93
2022/08/24 05:36:45;;;;;;;12.90;9.97;;;21.90;99.90;;;;;;5078300;28;20256;-90
2022/08/24 05:39:12;;;;;;;13.30;11.27;;;21.90;99.90;;;;;;5074155;28;20192;-94
2022/08/24 05:41:43;;;;;;;11.90;10.23;;;22.00;99.90;;;;;;5075489;28;20445;-92
2022/08/24 05:44:10;;;;;;;18.20;11.50;;;22.00;99.90;;;;;;5074792;28;20464;-93
2022/08/24 05:46:36;;;;;;;14.60;11.43;;;22.00;99.90;;;;;;5081062;28;20440;-93
2022/08/24 05:49:02;;;;;;;13.90;11.00;;;22.10;99.90;;;;;;5076702;28;20473;-93
2022/08/24 05:51:29;;;;;;;14.43;11.00;;;22.10;99.90;;;;;;5077393;28;20552;-92
2022/08/24 05:53:55;;;;;;;12.43;10.00;;;22.10;99.90;;;;;;5078206;28;20425;-94
2022/08/24 05:56:22;;;;;;;13.10;10.10;;;22.20;99.90;;;;;;5077331;28;20423;-93
2022/08/24 05:58:48;;;;;;;14.70;10.30;;;22.20;99.90;;;;;;5078005;28;20796;-93
2022/08/24 06:01:23;;;;;;;12.90;9.50;;;22.20;99.90;;;;;;5078373;28;20972;-93
2022/08/24 06:03:50;;;;;;;12.17;10.07;;;22.30;99.90;;;;;;5075212;28;20818;-93
2022/08/24 06:06:19;;;;;;;13.20;11.50;;;22.30;99.90;;;;;;5076414;28;20480;-93
2022/08/24 06:08:47;;;;;;;14.83;11.40;;;22.30;99.90;;;;;;5083911;28;20440;-93
2022/08/24 06:11:37;;;;;;;13.80;10.43;;;22.40;99.90;;;;;;5076643;28;20440;-94
2022/08/24 06:14:08;;;;;;;13.97;10.30;;;22.40;99.90;;;;;;5084966;28;20505;-93
2022/08/24 06:16:42;;;;;;;13.03;9.70;;;22.40;99.90;;;;;;5079190;28;20421;-94
2022/08/24 06:19:10;;;;;;;12.30;9.87;;;22.40;99.90;;;;;;5093093;28;20428;-94
2022/08/24 06:21:36;;;;;;;14.30;11.90;;;22.40;99.90;;;;;;5067585;28;20421;-94
2022/08/24 06:24:03;;;;;;;12.80;10.80;;;22.50;99.90;;;;;;5065617;28;20492;-93
2022/08/24 06:29:16;;;;;;;11.87;9.87;;;22.60;99.90;;;;;;5085183;28;20497;-93
2022/08/24 06:31:44;;;;;;;11.40;10.20;;;22.70;99.90;;;;;;5085174;28;20545;-92
2022/08/24 06:34:11;;;;;;;13.97;11.07;;;22.70;99.90;;;;;;5072630;28;20519;-92
2022/08/24 06:36:37;;;;;;;12.00;10.00;;;22.80;99.90;;;;;;5072407;28;20413;-94
2022/08/24 06:39:04;;;;;;;11.40;9.80;;;22.90;99.90;;;;;;5062428;28;20440;-94
2022/08/24 06:41:30;;;;;;;13.33;10.40;;;22.90;99.90;;;;;;5072581;28;20215;-92
2022/08/24 06:43:56;;;;;;;17.93;12.33;;;23.00;99.90;;;;;;5073020;28;20938;-94
2022/08/24 06:46:21;;;;;;;12.20;9.07;;;23.10;99.90;;;;;;5075665;28;20499;-93
2022/08/24 06:48:48;;;;;;;10.87;9.73;;;23.10;99.90;;;;;;5076245;28;20405;-94
2022/08/24 06:51:21;;;;;;;13.73;10.57;;;23.20;99.90;;;;;;5076354;28;20204;-94
2022/08/24 06:53:49;;;;;;;10.73;9.17;;;23.30;99.90;;;;;;5080744;28;20460;-92
2022/08/24 06:56:16;;;;;;;12.70;10.10;;;23.40;99.90;;;;;;5096789;28;20437;-94
2022/08/24 06:58:42;;;;;;;13.83;10.70;;;23.40;99.90;;;;;;5084503;28;20443;-93
2022/08/24 07:01:20;;;;;;;12.70;9.97;;;23.50;99.90;;;;;;5098151;28;20597;-93
2022/08/24 07:03:46;;;;;;;11.77;9.40;;;23.60;99.90;;;;;;5091336;28;20433;-92
2022/08/24 07:06:13;;;;;;;15.87;11.30;;;23.60;99.90;;;;;;5074257;28;20540;-92
2022/08/24 07:08:41;;;;;;;15.90;9.67;;;23.60;99.90;;;;;;5091020;28;20430;-94
2022/08/24 07:11:08;;;;;;;14.80;11.23;;;23.70;99.90;;;;;;5073863;28;20998;-93
2022/08/24 07:13:33;;;;;;;12.67;10.90;;;23.70;99.90;;;;;;5078349;28;20468;-93
2022/08/24 07:15:59;;;;;;;11.57;10.37;;;23.70;99.90;;;;;;5077222;28;20450;-92
2022/08/24 07:18:26;;;;;;;11.73;9.60;;;23.70;99.90;;;;;;5077013;28;20177;-92
2022/08/24 07:20:51;;;;;;;19.17;11.30;;;23.80;99.90;;;;;;5078908;28;20441;-92
2022/08/24 07:23:18;;;;;;;12.27;9.90;;;23.80;99.90;;;;;;5077844;28;20425;-93
2022/08/24 07:25:46;;;;;;;14.97;10.53;;;23.80;99.90;;;;;;5076776;28;20201;-94
2022/08/24 07:28:13;;;;;;;11.47;9.43;;;23.90;99.90;;;;;;5080802;28;20845;-92
2022/08/24 07:30:40;;;;;;;12.27;9.07;;;23.90;99.90;;;;;;5078577;28;20472;-93
2022/08/24 07:33:07;;;;;;;13.87;10.37;;;24.00;99.90;;;;;;5087558;28;20565;-92
2022/08/24 07:35:36;;;;;;;12.30;9.57;;;24.00;99.90;;;;;;5089850;28;21015;-95
2022/08/24 07:38:04;;;;;;;12.93;10.20;;;24.00;99.90;;;;;;5081276;28;20446;-92
2022/08/24 07:40:31;;;;;;;13.13;10.70;;;24.00;99.90;;;;;;5076310;28;20439;-94
2022/08/24 07:42:57;;;;;;;14.33;10.97;;;24.00;99.90;;;;;;5075669;28;20531;-93
2022/08/24 07:45:25;;;;;;;15.37;12.00;;;24.00;99.90;;;;;;5076960;28;20451;-91
2022/08/24 07:47:52;;;;;;;14.53;10.90;;;24.10;99.90;;;;;;5081827;28;20435;-93
2022/08/24 07:50:18;;;;;;;16.00;12.03;;;24.10;99.90;;;;;;5086643;28;20500;-94
2022/08/24 07:52:50;;;;;;;15.53;12.00;;;24.10;99.90;;;;;;5080595;28;20475;-94
2022/08/24 07:55:17;;;;;;;15.00;11.87;;;24.00;99.90;;;;;;5070704;28;20489;-95
2022/08/24 07:57:44;;;;;;;14.97;11.17;;;24.10;99.90;;;;;;5077207;28;20441;-93
2022/08/24 08:00:18;;;;;;;15.97;11.50;;;24.00;99.90;;;;;;5088676;28;20509;-94
2022/08/24 08:02:45;;;;;;;17.10;11.33;;;24.10;99.90;;;;;;5082251;28;20475;-94
2022/08/24 08:05:17;;;;;;;12.43;10.70;;;24.10;99.90;;;;;;5098751;28;20819;-94
2022/08/24 08:07:43;;;;;;;13.90;10.73;;;24.10;99.90;;;;;;5081764;28;20430;-94
2022/08/24 08:10:10;;;;;;;13.23;10.10;;;24.10;99.90;;;;;;5100337;28;20453;-94
2022/08/24 08:12:36;;;;;;;13.00;10.80;;;24.10;99.90;;;;;;5084463;28;20539;-93
2022/08/24 08:15:07;;;;;;;15.37;12.23;;;24.20;99.90;;;;;;5089954;28;20447;-95
2022/08/24 08:17:33;;;;;;;14.67;11.13;;;24.20;99.90;;;;;;5077000;28;20459;-94
2022/08/24 08:19:59;;;;;;;14.73;12.10;;;24.20;99.90;;;;;;5077071;28;20534;-93
2022/08/24 08:25:09;;;;;;;16.97;11.40;;;24.20;99.90;;;;;;5094700;28;20217;-94
2022/08/24 08:27:38;;;;;;;15.77;11.07;;;24.20;99.90;;;;;;5076585;28;20431;-95
2022/08/24 08:30:05;;;;;;;16.17;11.50;;;24.20;99.90;;;;;;5093517;28;20871;-94
2022/08/24 08:32:31;;;;;;;14.97;10.83;;;24.30;99.90;;;;;;5078164;28;20635;-95
2022/08/24 08:35:00;;;;;;;17.90;13.40;;;24.30;99.90;;;;;;5083448;28;20457;-93
2022/08/24 08:37:29;;;;;;;14.97;10.90;;;24.20;99.90;;;;;;5079017;28;20435;-93
2022/08/24 08:39:55;;;;;;;16.17;12.60;;;24.20;99.90;;;;;;5084086;28;20455;-93
2022/08/24 08:42:51;;;;;;;17.40;12.47;;;24.20;99.90;;;;;;5101875;28;20432;-93
2022/08/24 08:45:25;;;;;;;16.80;12.47;;;24.20;99.90;;;;;;5068307;28;21325;-93
2022/08/24 08:48:06;;;;;;;15.43;12.43;;;24.20;99.90;;;;;;5076385;28;20450;-94
2022/08/24 08:51:03;;;;;;;20.17;13.63;;;24.20;99.90;;;;;;5064330;28;20497;-94
2022/08/24 08:53:54;;;;;;;17.40;12.57;;;24.20;99.90;;;;;;5081347;28;20983;-95
2022/08/24 08:56:47;;;;;;;18.97;12.27;;;24.20;99.90;;;;;;5082857;28;20499;-94
2022/08/24 08:59:58;;;;;;;16.47;12.57;;;24.20;99.90;;;;;;5075222;28;20470;-92
2022/08/24 09:02:30;;;;;;;22.10;14.67;;;24.20;99.90;;;;;;5073021;28;20450;-94
2022/08/24 09:05:14;;;;;;;18.50;13.53;;;24.20;99.90;;;;;;5074502;28;20462;-92
2022/08/24 09:08:00;;;;;;;19.03;12.30;;;24.20;99.90;;;;;;5080509;28;20495;-94
2022/08/24 09:10:45;;;;;;;14.67;11.87;;;24.10;99.90;;;;;;5082224;28;20459;-93
2022/08/24 09:13:16;;;;;;;17.50;12.57;;;24.10;99.90;;;;;;5059406;28;20489;-93
2022/08/24 09:15:42;;;;;;;16.20;11.60;;;24.10;99.90;;;;;;5075443;28;20459;-94
2022/08/24 09:18:25;;;;;;;15.50;12.50;;;24.10;99.90;;;;;;5075081;28;20446;-94
2022/08/24 09:21:14;;;;;;;20.07;14.93;;;24.10;99.90;;;;;;5076514;28;20561;-93
2022/08/24 09:24:18;;;;;;;21.70;14.50;;;24.10;99.90;;;;;;5083133;28;20804;-92
2022/08/24 09:27:07;;;;;;;18.77;13.37;;;24.10;99.90;;;;;;5073919;28;21107;-94
2022/08/24 09:29:42;;;;;;;22.60;15.63;;;24.10;99.90;;;;;;5072905;28;20962;-94
2022/08/24 09:32:26;;;;;;;21.10;14.57;;;24.10;99.90;;;;;;5076903;28;20517;-93
2022/08/24 09:35:09;;;;;;;19.90;12.80;;;24.10;99.90;;;;;;5071193;28;20784;-92
2022/08/24 09:37:59;;;;;;;20.77;14.83;;;24.10;99.90;;;;;;5074038;28;21042;-94
2022/08/24 09:41:13;;;;;;;19.90;13.60;;;24.10;99.90;;;;;;5071660;28;20978;-93
2022/08/24 09:44:09;;;;;;;19.97;13.10;;;24.10;99.90;;;;;;5070721;28;20442;-94
2022/08/24 09:46:47;;;;;;;20.37;15.10;;;24.10;99.90;;;;;;5078365;28;20423;-93
2022/08/24 09:49:18;;;;;;;21.60;14.67;;;24.10;99.90;;;;;;5075217;28;20471;-93
2022/08/24 09:52:08;;;;;;;22.07;14.87;;;24.10;99.90;;;;;;5083317;28;20474;-92
2022/08/24 09:54:59;;;;;;;24.07;15.60;;;24.10;99.90;;;;;;5071142;28;20455;-93
2022/08/24 09:57:54;;;;;;;22.53;15.00;;;24.10;99.90;;;;;;5073611;28;20504;-92
2022/08/24 10:00:45;;;;;;;20.90;15.17;;;24.20;99.90;;;;;;5093511;28;20518;-93
2022/08/24 10:03:23;;;;;;;23.13;15.70;;;24.20;99.90;;;;;;5045330;28;20515;-93
2022/08/24 10:05:57;;;;;;;25.03;15.50;;;24.20;99.90;;;;;;5074186;28;20955;-92
2022/08/24 10:08:42;;;;;;;23.50;14.93;;;24.20;99.90;;;;;;5075599;28;20922;-94
2022/08/24 10:11:35;;;;;;;27.73;16.53;;;24.20;99.90;;;;;;5076609;28;20438;-93
2022/08/24 10:14:34;;;;;;;22.20;14.90;;;24.20;99.90;;;;;;5077324;28;20935;-93
2022/08/24 10:17:11;;;;;;;21.40;13.30;;;24.20;99.90;;;;;;5074901;28;20477;-93
2022/08/24 10:20:15;;;;;;;24.10;16.00;;;24.30;99.90;;;;;;5073790;28;20435;-93
2022/08/24 10:23:18;;;;;;;22.63;15.83;;;24.30;99.90;;;;;;5074237;28;20487;-93
2022/08/24 10:26:00;;;;;;;25.73;16.40;;;24.30;99.90;;;;;;5094143;28;20810;-93
2022/08/24 10:28:32;;;;;;;25.20;17.60;;;24.30;99.90;;;;;;5074104;28;20770;-93
2022/08/24 10:31:17;;;;;;;27.80;15.63;;;24.30;99.90;;;;;;5074779;28;20432;-92
2022/08/24 10:34:16;;;;;;;24.07;16.10;;;24.30;99.90;;;;;;5075595;28;20451;-93
2022/08/24 10:37:07;;;;;;;24.80;18.10;;;24.30;99.90;;;;;;5077644;28;20840;-94
2022/08/24 10:40:04;;;;;;;20.70;14.97;;;24.30;99.90;;;;;;5077452;28;20439;-93
2022/08/24 10:46:18;;;;;;;26.53;16.50;;;24.30;99.90;;;;;;5100182;28;20447;-93
2022/08/24 10:49:04;;;;;;;28.60;16.53;;;24.30;99.90;;;;;;5039656;28;20971;-93
2022/08/24 10:52:00;;;;;;;24.73;16.03;;;24.30;99.90;;;;;;5071110;28;20435;-93
2022/08/24 10:54:26;;;;;;;24.40;15.60;;;24.30;99.90;;;;;;5070076;28;20500;-93
2022/08/24 10:57:05;;;;;;;25.23;16.57;;;24.40;99.90;;;;;;5074609;28;20447;-93
2022/08/24 10:59:44;;;;;;;25.17;17.27;;;24.40;99.90;;;;;;5074634;28;20444;-93
2022/08/24 11:02:27;;;;;;;28.70;18.30;;;24.40;99.90;;;;;;5092916;28;20453;-93
2022/08/24 11:04:58;;;;;;;24.87;16.23;;;24.40;99.90;;;;;;5101920;28;20702;-94
2022/08/24 11:07:25;;;;;;;24.57;17.50;;;24.40;99.90;;;;;;5082358;28;20481;-93
2022/08/24 11:09:52;;;;;;;25.70;17.83;;;24.40;99.90;;;;;;5079573;28;20499;-94
2022/08/24 11:12:27;;;;;;;28.93;18.10;;;24.40;99.90;;;;;;5083087;28;20494;-93
2022/08/24 11:14:55;;;;;;;28.13;17.17;;;24.40;99.90;;;;;;5079092;28;20503;-93
2022/08/24 11:17:23;;;;;;;25.73;17.43;;;24.40;99.90;;;;;;5080548;28;20431;-93
2022/08/24 11:19:50;;;;;;;28.90;16.40;;;24.30;99.90;;;;;;5080843;28;20464;-94
2022/08/24 11:22:35;;;;;;;24.53;15.57;;;24.30;99.90;;;;;;5094892;28;20436;-93
2022/08/24 11:25:18;;;;;;;31.73;18.33;;;24.40;99.90;;;;;;5077531;28;20455;-94
2022/08/24 11:27:51;;;;;;;30.97;20.03;;;24.30;99.90;;;;;;5075661;28;20444;-93
2022/08/24 11:30:17;;;;;;;27.40;18.03;;;24.30;99.90;;;;;;5074867;28;20445;-93
2022/08/24 11:32:57;;;;;;;25.50;16.43;;;24.30;99.90;;;;;;5076009;28;20479;-94
2022/08/24 11:35:32;;;;;;;27.90;17.50;;;24.30;99.90;;;;;;5078364;28;20257;-94
2022/08/24 11:38:16;;;;;;;26.43;18.30;;;24.30;99.90;;;;;;5078532;28;20521;-94
2022/08/24 11:41:11;;;;;;;23.00;14.07;;;24.40;99.90;;;;;;5078834;28;20458;-93
2022/08/24 11:43:37;;;;;;;26.23;16.87;;;24.40;99.90;;;;;;5068290;28;20447;-93
2022/08/24 11:46:14;;;;;;;27.27;17.10;;;24.50;99.90;;;;;;5082748;28;20473;-93
2022/08/24 11:49:08;;;;;;;23.07;16.27;;;24.50;99.90;;;;;;5088099;28;20704;-93
2022/08/24 11:52:01;;;;;;;22.00;15.30;;;24.50;99.90;;;;;;5049394;28;20978;-92
2022/08/24 11:54:37;;;;;;;24.97;16.70;;;24.60;99.90;;;;;;5057788;28;20485;-94
2022/08/24 11:57:07;;;;;;;24.57;15.60;;;24.70;99.90;;;;;;5058024;28;20495;-92
2022/08/24 12:00:04;;;;;;;24.40;16.37;;;24.80;99.90;;;;;;5055401;28;20789;-93
2022/08/24 12:02:53;;;;;;;22.50;15.20;;;24.80;99.90;;;;;;5055331;28;20442;-94
2022/08/24 12:05:25;;;;;;;21.27;12.73;;;24.90;99.90;;;;;;5051524;28;20554;-93
2022/08/24 12:08:17;;;;;;;16.90;12.37;;;25.00;99.90;;;;;;5053948;28;20464;-93
2022/08/24 12:11:01;;;;;;;14.47;11.17;;;25.10;99.90;;;;;;5054145;28;20508;-93
2022/08/24 12:13:52;;;;;;;17.10;12.83;;;25.10;99.90;;;;;;5055699;28;20971;-93
2022/08/24 12:16:53;;;;;;;18.63;12.40;;;25.20;99.90;;;;;;5048339;28;20584;-94
2022/08/24 12:19:26;;;;;;;19.20;11.67;;;25.20;99.90;;;;;;5059243;28;20453;-93
2022/08/24 12:21:56;;;;;;;21.90;13.20;;;25.30;99.90;;;;;;5054997;28;20533;-93
2022/08/24 12:24:33;;;;;;;17.63;11.43;;;25.30;99.90;;;;;;5055705;28;20782;-93
2022/08/24 12:27:27;;;;;;;18.07;13.70;;;25.30;99.90;;;;;;5053481;28;20457;-93
2022/08/24 12:30:02;;;;;;;17.90;12.00;;;25.40;99.90;;;;;;5046758;28;20444;-92
2022/08/24 12:32:37;;;;;;;21.97;12.77;;;25.50;99.90;;;;;;5067569;28;20474;-93
2022/08/24 12:35:15;;;;;;;18.47;12.40;;;25.50;99.90;;;;;;5047087;28;20538;-94
2022/08/24 12:38:13;;;;;;;17.70;10.83;;;25.50;99.90;;;;;;5054606;28;21009;-93
2022/08/24 12:41:02;;;;;;;19.57;11.73;;;25.50;99.90;;;;;;5052134;28;20461;-93
2022/08/24 12:43:52;;;;;;;15.53;11.47;;;25.60;99.90;;;;;;5050066;28;20442;-94
2022/08/24 12:46:25;;;;;;;17.80;12.57;;;25.60;99.90;;;;;;5051651;28;20477;-93
2022/08/24 12:49:10;;;;;;;17.33;12.40;;;25.70;99.90;;;;;;5055725;28;20803;-94
2022/08/24 12:52:14;;;;;;;17.40;12.03;;;25.80;99.90;;;;;;5069358;28;20482;-91
2022/08/24 12:55:10;;;;;;;20.73;11.90;;;25.80;99.90;;;;;;5077072;28;20449;-93
2022/08/24 12:57:45;;;;;;;20.07;12.20;;;25.90;99.90;;;;;;5074944;28;20451;-94
2022/08/24 13:00:21;;;;;;;15.67;11.00;;;25.90;99.90;;;;;;5078504;28;20960;-93
2022/08/24 13:03:01;;;;;;;17.60;11.90;;;25.90;99.90;;;;;;5075555;28;20964;-94
2022/08/24 13:05:43;;;;;;;15.77;12.40;;;26.00;99.90;;;;;;5081938;28;20530;-93
2022/08/24 13:08:34;;;;;;;13.93;10.70;;;26.00;99.90;;;;;;5079181;28;20440;-91
2022/08/24 13:11:27;;;;;;;14.20;10.77;;;26.00;99.90;;;;;;5078906;28;20449;-94
2022/08/24 13:13:53;;;;;;;18.00;11.40;;;26.00;99.90;;;;;;5072273;28;20453;-91